sensor_id;sensor_type;location;lat;lon;timestamp;P1;durP1;ratioP1;P2;durP2;ratioP2
21501;SDS011;27639;48.674;9.242;2023-02-13T00:00:10;24.10;;;15.10;;
21501;SDS011;27639;48.674;9.242;2023-02-13T00:02:38;24.17;;;15.05;;
21501;SDS011;27639;48.674;9.242;2023-02-13T00:05:04;21.88;;;14.93;;
21501;SDS011;27639;48.674;9.242;2023-02-13T00:07:29;24.83;;;14.80;;
21501;SDS011;27639;48.674;9.242;2023-02-13T00:09:55;22.85;;;15.00;;
21501;SDS011;27639;48.674;9.242;2023-02-13T00:12:21;23.02;;;15.25;;
21501;SDS011;27639;48.674;9.242;2023-02-13T00:14:46;24.75;;;15.43;;
21501;SDS011;27639;48.674;9.242;2023-02-13T00:17:12;24.20;;;15.32;;
21501;SDS011;27639;48.674;9.242;2023-02-13T00:19:38;22.63;;;15.25;;
21501;SDS011;27639;48.674;9.242;2023-02-13T00:22:03;21.58;;;15.27;;
21501;SDS011;27639;48.674;9.242;2023-02-13T00:24:29;22.90;;;15.82;;
21501;SDS011;27639;48.674;9.242;2023-02-13T00:26:54;22.50;;;15.18;;
21501;SDS011;27639;48.674;9.242;2023-02-13T00:29:20;24.92;;;15.23;;
21501;SDS011;27639;48.674;9.242;2023-02-13T00:31:46;25.75;;;16.90;;
21501;SDS011;27639;48.674;9.242;2023-02-13T00:34:11;25.52;;;16.58;;
21501;SDS011;27639;48.674;9.242;2023-02-13T00:36:37;24.95;;;15.95;;
21501;SDS011;27639;48.674;9.242;2023-02-13T00:39:02;25.02;;;16.42;;
21501;SDS011;27639;48.674;9.242;2023-02-13T00:41:28;25.23;;;17.23;;
21501;SDS011;27639;48.674;9.242;2023-02-13T00:43:54;24.80;;;16.70;;
21501;SDS011;27639;48.674;9.242;2023-02-13T00:46:19;24.88;;;17.08;;
21501;SDS011;27639;48.674;9.242;2023-02-13T00:48:45;25.63;;;15.65;;
21501;SDS011;27639;48.674;9.242;2023-02-13T00:51:11;24.98;;;16.00;;
21501;SDS011;27639;48.674;9.242;2023-02-13T00:53:36;23.17;;;14.77;;
21501;SDS011;27639;48.674;9.242;2023-02-13T00:56:03;22.50;;;14.93;;
21501;SDS011;27639;48.674;9.242;2023-02-13T00:58:29;24.35;;;15.63;;
21501;SDS011;27639;48.674;9.242;2023-02-13T01:00:55;24.92;;;15.48;;
21501;SDS011;27639;48.674;9.242;2023-02-13T01:03:21;23.65;;;15.80;;
21501;SDS011;27639;48.674;9.242;2023-02-13T01:05:47;22.90;;;14.93;;
21501;SDS011;27639;48.674;9.242;2023-02-13T01:08:13;26.40;;;16.40;;
21501;SDS011;27639;48.674;9.242;2023-02-13T01:10:40;27.50;;;16.80;;
21501;SDS011;27639;48.674;9.242;2023-02-13T01:13:07;26.73;;;16.60;;
21501;SDS011;27639;48.674;9.242;2023-02-13T01:15:33;28.60;;;17.10;;
21501;SDS011;27639;48.674;9.242;2023-02-13T01:17:59;27.73;;;16.52;;
21501;SDS011;27639;48.674;9.242;2023-02-13T01:20:25;25.80;;;16.70;;
21501;SDS011;27639;48.674;9.242;2023-02-13T01:22:53;27.23;;;15.75;;
21501;SDS011;27639;48.674;9.242;2023-02-13T01:25:18;25.17;;;16.08;;
21501;SDS011;27639;48.674;9.242;2023-02-13T01:27:44;26.02;;;16.08;;
21501;SDS011;27639;48.674;9.242;2023-02-13T01:30:11;22.58;;;14.85;;
21501;SDS011;27639;48.674;9.242;2023-02-13T01:32:38;29.60;;;18.73;;
21501;SDS011;27639;48.674;9.242;2023-02-13T01:35:05;27.33;;;17.52;;
21501;SDS011;27639;48.674;9.242;2023-02-13T01:37:32;28.67;;;17.55;;
21501;SDS011;27639;48.674;9.242;2023-02-13T01:39:58;34.00;;;20.75;;
21501;SDS011;27639;48.674;9.242;2023-02-13T01:42:25;30.95;;;19.77;;
21501;SDS011;27639;48.674;9.242;2023-02-13T01:44:54;31.80;;;19.05;;
21501;SDS011;27639;48.674;9.242;2023-02-13T01:50:10;28.75;;;17.48;;
21501;SDS011;27639;48.674;9.242;2023-02-13T01:55:43;29.67;;;17.77;;
21501;SDS011;27639;48.674;9.242;2023-02-13T01:58:17;28.00;;;18.00;;
21501;SDS011;27639;48.674;9.242;2023-02-13T02:00:46;29.20;;;16.73;;
21501;SDS011;27639;48.674;9.242;2023-02-13T02:03:20;28.45;;;16.55;;
21501;SDS011;27639;48.674;9.242;2023-02-13T02:05:50;29.63;;;17.27;;
21501;SDS011;27639;48.674;9.242;2023-02-13T02:08:17;28.00;;;17.75;;
21501;SDS011;27639;48.674;9.242;2023-02-13T02:10:44;28.20;;;17.92;;
21501;SDS011;27639;48.674;9.242;2023-02-13T02:13:11;27.63;;;17.25;;
21501;SDS011;27639;48.674;9.242;2023-02-13T02:15:40;29.25;;;17.25;;
21501;SDS011;27639;48.674;9.242;2023-02-13T02:18:13;31.55;;;17.02;;
21501;SDS011;27639;48.674;9.242;2023-02-13T02:20:50;30.48;;;16.67;;
21501;SDS011;27639;48.674;9.242;2023-02-13T02:34:35;30.25;;;18.67;;
21501;SDS011;27639;48.674;9.242;2023-02-13T02:39:53;30.65;;;17.70;;
21501;SDS011;27639;48.674;9.242;2023-02-13T02:54:12;31.45;;;18.02;;
21501;SDS011;27639;48.674;9.242;2023-02-13T02:57:10;29.10;;;18.08;;
21501;SDS011;27639;48.674;9.242;2023-02-13T02:59:40;30.20;;;17.23;;
21501;SDS011;27639;48.674;9.242;2023-02-13T03:02:26;29.70;;;16.65;;
21501;SDS011;27639;48.674;9.242;2023-02-13T03:05:21;28.90;;;17.02;;
21501;SDS011;27639;48.674;9.242;2023-02-13T03:08:10;26.30;;;16.35;;
21501;SDS011;27639;48.674;9.242;2023-02-13T03:10:37;28.55;;;16.58;;
21501;SDS011;27639;48.674;9.242;2023-02-13T03:13:41;30.10;;;16.95;;
21501;SDS011;27639;48.674;9.242;2023-02-13T03:16:21;27.20;;;16.00;;
21501;SDS011;27639;48.674;9.242;2023-02-13T03:19:12;30.77;;;16.73;;
21501;SDS011;27639;48.674;9.242;2023-02-13T03:34:03;30.60;;;16.60;;
21501;SDS011;27639;48.674;9.242;2023-02-13T03:37:01;29.20;;;16.70;;
21501;SDS011;27639;48.674;9.242;2023-02-13T03:44:48;30.05;;;16.10;;
21501;SDS011;27639;48.674;9.242;2023-02-13T03:47:58;28.90;;;16.27;;
21501;SDS011;27639;48.674;9.242;2023-02-13T03:50:33;30.05;;;16.10;;
21501;SDS011;27639;48.674;9.242;2023-02-13T03:53:08;28.88;;;16.40;;
21501;SDS011;27639;48.674;9.242;2023-02-13T03:55:37;31.52;;;16.33;;
21501;SDS011;27639;48.674;9.242;2023-02-13T03:58:29;27.90;;;15.75;;
21501;SDS011;27639;48.674;9.242;2023-02-13T04:01:23;30.92;;;16.73;;
21501;SDS011;27639;48.674;9.242;2023-02-13T04:06:31;33.20;;;17.77;;
21501;SDS011;27639;48.674;9.242;2023-02-13T04:09:00;33.20;;;18.70;;
21501;SDS011;27639;48.674;9.242;2023-02-13T04:11:33;32.58;;;17.88;;
21501;SDS011;27639;48.674;9.242;2023-02-13T04:14:22;31.45;;;17.85;;
21501;SDS011;27639;48.674;9.242;2023-02-13T04:16:57;31.02;;;17.35;;
21501;SDS011;27639;48.674;9.242;2023-02-13T04:19:27;30.38;;;17.45;;
21501;SDS011;27639;48.674;9.242;2023-02-13T04:21:54;29.80;;;17.65;;
21501;SDS011;27639;48.674;9.242;2023-02-13T04:24:23;29.38;;;17.17;;
21501;SDS011;27639;48.674;9.242;2023-02-13T04:26:49;28.70;;;16.45;;
21501;SDS011;27639;48.674;9.242;2023-02-13T04:29:15;29.95;;;17.63;;
21501;SDS011;27639;48.674;9.242;2023-02-13T04:31:40;31.08;;;17.27;;
21501;SDS011;27639;48.674;9.242;2023-02-13T04:34:06;30.45;;;17.45;;
21501;SDS011;27639;48.674;9.242;2023-02-13T04:36:31;25.95;;;15.40;;
21501;SDS011;27639;48.674;9.242;2023-02-13T04:38:57;29.92;;;16.23;;
21501;SDS011;27639;48.674;9.242;2023-02-13T04:41:22;29.83;;;16.77;;
21501;SDS011;27639;48.674;9.242;2023-02-13T04:43:48;31.92;;;17.08;;
21501;SDS011;27639;48.674;9.242;2023-02-13T04:46:16;29.02;;;16.85;;
21501;SDS011;27639;48.674;9.242;2023-02-13T04:48:42;28.20;;;16.33;;
21501;SDS011;27639;48.674;9.242;2023-02-13T04:51:07;27.85;;;16.85;;
21501;SDS011;27639;48.674;9.242;2023-02-13T04:53:33;28.75;;;16.77;;
21501;SDS011;27639;48.674;9.242;2023-02-13T04:55:58;31.08;;;16.63;;
21501;SDS011;27639;48.674;9.242;2023-02-13T04:58:24;31.00;;;16.38;;
21501;SDS011;27639;48.674;9.242;2023-02-13T05:00:49;29.20;;;16.52;;
21501;SDS011;27639;48.674;9.242;2023-02-13T05:03:15;27.17;;;16.15;;
21501;SDS011;27639;48.674;9.242;2023-02-13T05:05:41;30.40;;;16.15;;
21501;SDS011;27639;48.674;9.242;2023-02-13T05:08:07;29.55;;;16.17;;
21501;SDS011;27639;48.674;9.242;2023-02-13T05:10:33;29.80;;;16.02;;
21501;SDS011;27639;48.674;9.242;2023-02-13T05:12:59;31.25;;;16.85;;
21501;SDS011;27639;48.674;9.242;2023-02-13T05:15:25;26.63;;;15.95;;
21501;SDS011;27639;48.674;9.242;2023-02-13T05:17:51;26.63;;;15.85;;
21501;SDS011;27639;48.674;9.242;2023-02-13T05:20:17;29.10;;;17.00;;
21501;SDS011;27639;48.674;9.242;2023-02-13T05:22:49;28.73;;;15.20;;
21501;SDS011;27639;48.674;9.242;2023-02-13T05:25:35;28.23;;;15.52;;
21501;SDS011;27639;48.674;9.242;2023-02-13T05:28:02;28.58;;;16.58;;
21501;SDS011;27639;48.674;9.242;2023-02-13T05:30:28;27.63;;;15.60;;
21501;SDS011;27639;48.674;9.242;2023-02-13T05:32:54;25.08;;;14.98;;
21501;SDS011;27639;48.674;9.242;2023-02-13T05:35:20;26.52;;;15.63;;
21501;SDS011;27639;48.674;9.242;2023-02-13T05:37:46;25.05;;;15.48;;
21501;SDS011;27639;48.674;9.242;2023-02-13T05:40:12;30.42;;;16.73;;
21501;SDS011;27639;48.674;9.242;2023-02-13T05:42:38;26.17;;;15.27;;
21501;SDS011;27639;48.674;9.242;2023-02-13T05:45:05;28.20;;;16.58;;
21501;SDS011;27639;48.674;9.242;2023-02-13T05:47:32;27.95;;;16.05;;
21501;SDS011;27639;48.674;9.242;2023-02-13T05:49:57;27.98;;;16.17;;
21501;SDS011;27639;48.674;9.242;2023-02-13T05:52:23;27.95;;;16.48;;
21501;SDS011;27639;48.674;9.242;2023-02-13T05:54:48;25.17;;;15.55;;
21501;SDS011;27639;48.674;9.242;2023-02-13T05:57:14;29.60;;;15.65;;
21501;SDS011;27639;48.674;9.242;2023-02-13T05:59:40;29.25;;;15.88;;
21501;SDS011;27639;48.674;9.242;2023-02-13T06:02:05;29.65;;;17.98;;
21501;SDS011;27639;48.674;9.242;2023-02-13T06:04:31;33.50;;;18.25;;
21501;SDS011;27639;48.674;9.242;2023-02-13T06:06:56;33.28;;;19.45;;
21501;SDS011;27639;48.674;9.242;2023-02-13T06:09:22;33.72;;;18.33;;
21501;SDS011;27639;48.674;9.242;2023-02-13T06:11:48;31.50;;;18.20;;
21501;SDS011;27639;48.674;9.242;2023-02-13T06:14:13;32.97;;;19.60;;
21501;SDS011;27639;48.674;9.242;2023-02-13T06:16:39;34.53;;;20.30;;
21501;SDS011;27639;48.674;9.242;2023-02-13T06:19:06;34.08;;;19.27;;
21501;SDS011;27639;48.674;9.242;2023-02-13T06:21:32;34.05;;;19.60;;
21501;SDS011;27639;48.674;9.242;2023-02-13T06:24:02;31.10;;;19.58;;
21501;SDS011;27639;48.674;9.242;2023-02-13T06:26:32;32.88;;;19.33;;
21501;SDS011;27639;48.674;9.242;2023-02-13T06:28:58;29.23;;;19.48;;
21501;SDS011;27639;48.674;9.242;2023-02-13T06:31:24;36.75;;;20.65;;
21501;SDS011;27639;48.674;9.242;2023-02-13T06:33:49;36.85;;;19.58;;
21501;SDS011;27639;48.674;9.242;2023-02-13T06:36:15;34.88;;;20.33;;
21501;SDS011;27639;48.674;9.242;2023-02-13T06:38:41;36.00;;;20.35;;
21501;SDS011;27639;48.674;9.242;2023-02-13T06:41:07;34.22;;;20.25;;
21501;SDS011;27639;48.674;9.242;2023-02-13T06:43:34;32.35;;;20.15;;
21501;SDS011;27639;48.674;9.242;2023-02-13T06:46:03;32.58;;;19.17;;
21501;SDS011;27639;48.674;9.242;2023-02-13T06:48:29;32.05;;;18.63;;
21501;SDS011;27639;48.674;9.242;2023-02-13T06:50:55;32.78;;;19.40;;
21501;SDS011;27639;48.674;9.242;2023-02-13T06:53:20;33.15;;;18.13;;
21501;SDS011;27639;48.674;9.242;2023-02-13T06:55:49;31.08;;;17.95;;
21501;SDS011;27639;48.674;9.242;2023-02-13T06:58:19;28.20;;;18.25;;
21501;SDS011;27639;48.674;9.242;2023-02-13T07:00:46;32.00;;;18.23;;
21501;SDS011;27639;48.674;9.242;2023-02-13T07:03:11;30.55;;;18.48;;
21501;SDS011;27639;48.674;9.242;2023-02-13T07:05:40;26.08;;;17.25;;
21501;SDS011;27639;48.674;9.242;2023-02-13T07:08:07;31.25;;;18.90;;
21501;SDS011;27639;48.674;9.242;2023-02-13T07:10:37;32.70;;;18.50;;
21501;SDS011;27639;48.674;9.242;2023-02-13T07:13:04;29.60;;;17.92;;
21501;SDS011;27639;48.674;9.242;2023-02-13T07:15:30;26.17;;;16.55;;
21501;SDS011;27639;48.674;9.242;2023-02-13T07:17:59;27.38;;;17.00;;
21501;SDS011;27639;48.674;9.242;2023-02-13T07:20:25;28.17;;;16.33;;
21501;SDS011;27639;48.674;9.242;2023-02-13T07:22:51;25.50;;;16.60;;
21501;SDS011;27639;48.674;9.242;2023-02-13T07:25:18;31.77;;;17.75;;
21501;SDS011;27639;48.674;9.242;2023-02-13T07:27:44;32.72;;;17.67;;
21501;SDS011;27639;48.674;9.242;2023-02-13T07:30:10;30.73;;;17.90;;
21501;SDS011;27639;48.674;9.242;2023-02-13T07:32:35;28.90;;;17.17;;
21501;SDS011;27639;48.674;9.242;2023-02-13T07:35:01;31.25;;;17.00;;
21501;SDS011;27639;48.674;9.242;2023-02-13T07:37:28;27.50;;;16.50;;
21501;SDS011;27639;48.674;9.242;2023-02-13T07:39:56;28.63;;;17.38;;
21501;SDS011;27639;48.674;9.242;2023-02-13T07:42:22;27.55;;;16.05;;
21501;SDS011;27639;48.674;9.242;2023-02-13T07:44:48;28.42;;;16.25;;
21501;SDS011;27639;48.674;9.242;2023-02-13T07:47:13;28.55;;;16.50;;
21501;SDS011;27639;48.674;9.242;2023-02-13T07:49:39;32.40;;;16.90;;
21501;SDS011;27639;48.674;9.242;2023-02-13T07:52:04;30.92;;;17.30;;
21501;SDS011;27639;48.674;9.242;2023-02-13T07:54:31;28.60;;;16.75;;
21501;SDS011;27639;48.674;9.242;2023-02-13T07:56:57;29.65;;;17.90;;
21501;SDS011;27639;48.674;9.242;2023-02-13T07:59:23;27.02;;;16.80;;
21501;SDS011;27639;48.674;9.242;2023-02-13T08:01:48;26.50;;;16.58;;
21501;SDS011;27639;48.674;9.242;2023-02-13T08:04:14;30.23;;;17.17;;
21501;SDS011;27639;48.674;9.242;2023-02-13T08:06:40;29.55;;;17.20;;
21501;SDS011;27639;48.674;9.242;2023-02-13T08:09:06;28.98;;;17.42;;
21501;SDS011;27639;48.674;9.242;2023-02-13T08:11:56;29.60;;;17.98;;
21501;SDS011;27639;48.674;9.242;2023-02-13T08:14:23;30.27;;;17.42;;
21501;SDS011;27639;48.674;9.242;2023-02-13T08:16:50;32.00;;;18.42;;
21501;SDS011;27639;48.674;9.242;2023-02-13T08:19:17;28.40;;;17.55;;
21501;SDS011;27639;48.674;9.242;2023-02-13T08:21:43;29.23;;;17.92;;
21501;SDS011;27639;48.674;9.242;2023-02-13T08:24:10;29.75;;;17.92;;
21501;SDS011;27639;48.674;9.242;2023-02-13T08:26:36;28.55;;;17.23;;
21501;SDS011;27639;48.674;9.242;2023-02-13T08:29:02;27.48;;;17.63;;
21501;SDS011;27639;48.674;9.242;2023-02-13T08:31:28;23.52;;;15.68;;
21501;SDS011;27639;48.674;9.242;2023-02-13T08:33:54;25.10;;;16.05;;
21501;SDS011;27639;48.674;9.242;2023-02-13T08:36:21;26.50;;;16.50;;
21501;SDS011;27639;48.674;9.242;2023-02-13T08:38:47;29.60;;;18.17;;
21501;SDS011;27639;48.674;9.242;2023-02-13T08:41:13;26.38;;;16.42;;
21501;SDS011;27639;48.674;9.242;2023-02-13T08:43:39;19.55;;;12.75;;
21501;SDS011;27639;48.674;9.242;2023-02-13T08:46:05;16.17;;;10.75;;
21501;SDS011;27639;48.674;9.242;2023-02-13T08:48:30;16.42;;;10.15;;
21501;SDS011;27639;48.674;9.242;2023-02-13T08:50:56;15.60;;;9.90;;
21501;SDS011;27639;48.674;9.242;2023-02-13T08:53:22;15.80;;;9.63;;
21501;SDS011;27639;48.674;9.242;2023-02-13T08:55:54;14.45;;;8.98;;
21501;SDS011;27639;48.674;9.242;2023-02-13T08:58:20;14.95;;;9.48;;
21501;SDS011;27639;48.674;9.242;2023-02-13T09:00:46;13.95;;;9.65;;
21501;SDS011;27639;48.674;9.242;2023-02-13T09:03:11;16.27;;;9.95;;
21501;SDS011;27639;48.674;9.242;2023-02-13T09:05:37;16.73;;;10.77;;
21501;SDS011;27639;48.674;9.242;2023-02-13T09:08:03;16.23;;;10.70;;
21501;SDS011;27639;48.674;9.242;2023-02-13T09:10:29;16.55;;;11.00;;
21501;SDS011;27639;48.674;9.242;2023-02-13T09:12:55;15.02;;;10.68;;
21501;SDS011;27639;48.674;9.242;2023-02-13T09:15:21;14.80;;;10.13;;
21501;SDS011;27639;48.674;9.242;2023-02-13T09:17:47;16.25;;;10.70;;
21501;SDS011;27639;48.674;9.242;2023-02-13T09:20:12;14.02;;;9.75;;
21501;SDS011;27639;48.674;9.242;2023-02-13T09:22:39;16.20;;;10.52;;
21501;SDS011;27639;48.674;9.242;2023-02-13T09:25:05;16.40;;;10.23;;
21501;SDS011;27639;48.674;9.242;2023-02-13T09:27:31;13.45;;;10.10;;
21501;SDS011;27639;48.674;9.242;2023-02-13T09:29:57;14.30;;;10.05;;
21501;SDS011;27639;48.674;9.242;2023-02-13T09:32:23;13.35;;;9.63;;
21501;SDS011;27639;48.674;9.242;2023-02-13T09:34:49;13.27;;;8.75;;
21501;SDS011;27639;48.674;9.242;2023-02-13T09:37:15;13.10;;;9.88;;
21501;SDS011;27639;48.674;9.242;2023-02-13T09:39:41;14.13;;;9.80;;
21501;SDS011;27639;48.674;9.242;2023-02-13T09:42:14;13.80;;;9.35;;
21501;SDS011;27639;48.674;9.242;2023-02-13T09:44:50;14.27;;;9.57;;
21501;SDS011;27639;48.674;9.242;2023-02-13T09:47:30;13.55;;;9.75;;
21501;SDS011;27639;48.674;9.242;2023-02-13T09:50:02;12.15;;;9.15;;
21501;SDS011;27639;48.674;9.242;2023-02-13T09:52:32;12.18;;;8.90;;
21501;SDS011;27639;48.674;9.242;2023-02-13T09:54:59;12.40;;;9.13;;
21501;SDS011;27639;48.674;9.242;2023-02-13T09:57:27;12.27;;;8.55;;
21501;SDS011;27639;48.674;9.242;2023-02-13T10:02:50;12.30;;;8.82;;
21501;SDS011;27639;48.674;9.242;2023-02-13T10:08:02;11.60;;;8.50;;
21501;SDS011;27639;48.674;9.242;2023-02-13T10:14:03;12.90;;;8.77;;
21501;SDS011;27639;48.674;9.242;2023-02-13T10:16:37;11.93;;;8.52;;
21501;SDS011;27639;48.674;9.242;2023-02-13T10:22:09;11.43;;;8.05;;
21501;SDS011;27639;48.674;9.242;2023-02-13T10:24:43;10.07;;;7.97;;
21501;SDS011;27639;48.674;9.242;2023-02-13T10:27:37;10.88;;;7.93;;
21501;SDS011;27639;48.674;9.242;2023-02-13T10:30:07;12.40;;;8.30;;
21501;SDS011;27639;48.674;9.242;2023-02-13T10:32:45;12.27;;;8.02;;
21501;SDS011;27639;48.674;9.242;2023-02-13T10:35:21;10.50;;;7.63;;
21501;SDS011;27639;48.674;9.242;2023-02-13T10:37:55;10.75;;;7.55;;
21501;SDS011;27639;48.674;9.242;2023-02-13T10:40:35;10.07;;;7.35;;
21501;SDS011;27639;48.674;9.242;2023-02-13T10:43:07;10.40;;;7.43;;
21501;SDS011;27639;48.674;9.242;2023-02-13T10:48:13;10.45;;;7.43;;
21501;SDS011;27639;48.674;9.242;2023-02-13T10:50:52;11.48;;;7.68;;
21501;SDS011;27639;48.674;9.242;2023-02-13T10:53:35;10.63;;;7.40;;
21501;SDS011;27639;48.674;9.242;2023-02-13T11:04:42;12.88;;;9.20;;
21501;SDS011;27639;48.674;9.242;2023-02-13T11:07:10;12.27;;;9.70;;
21501;SDS011;27639;48.674;9.242;2023-02-13T11:09:40;11.30;;;8.70;;
21501;SDS011;27639;48.674;9.242;2023-02-13T11:14:56;13.38;;;9.32;;
21501;SDS011;27639;48.674;9.242;2023-02-13T11:17:27;12.65;;;9.57;;
21501;SDS011;27639;48.674;9.242;2023-02-13T11:19:57;11.85;;;8.77;;
21501;SDS011;27639;48.674;9.242;2023-02-13T11:22:34;12.55;;;9.27;;
21501;SDS011;27639;48.674;9.242;2023-02-13T11:25:11;12.15;;;9.20;;
21501;SDS011;27639;48.674;9.242;2023-02-13T11:27:44;12.68;;;8.57;;
21501;SDS011;27639;48.674;9.242;2023-02-13T11:32:59;11.07;;;8.10;;
21501;SDS011;27639;48.674;9.242;2023-02-13T11:35:45;11.52;;;8.13;;
21501;SDS011;27639;48.674;9.242;2023-02-13T11:40:40;12.05;;;8.80;;
21501;SDS011;27639;48.674;9.242;2023-02-13T11:43:16;12.02;;;8.70;;
21501;SDS011;27639;48.674;9.242;2023-02-13T11:45:45;11.38;;;8.73;;
21501;SDS011;27639;48.674;9.242;2023-02-13T11:48:19;11.05;;;8.43;;
21501;SDS011;27639;48.674;9.242;2023-02-13T11:50:50;12.10;;;9.05;;
21501;SDS011;27639;48.674;9.242;2023-02-13T11:53:20;12.13;;;9.05;;
21501;SDS011;27639;48.674;9.242;2023-02-13T11:58:35;12.43;;;8.32;;
21501;SDS011;27639;48.674;9.242;2023-02-13T12:03:35;11.85;;;9.48;;
21501;SDS011;27639;48.674;9.242;2023-02-13T12:06:04;10.90;;;8.82;;
21501;SDS011;27639;48.674;9.242;2023-02-13T12:08:39;11.88;;;8.95;;
21501;SDS011;27639;48.674;9.242;2023-02-13T12:11:13;12.52;;;9.50;;
21501;SDS011;27639;48.674;9.242;2023-02-13T12:13:41;11.40;;;8.73;;
21501;SDS011;27639;48.674;9.242;2023-02-13T12:16:09;12.63;;;9.38;;
21501;SDS011;27639;48.674;9.242;2023-02-13T12:18:56;12.93;;;9.27;;
21501;SDS011;27639;48.674;9.242;2023-02-13T12:46:13;13.38;;;9.63;;
21501;SDS011;27639;48.674;9.242;2023-02-13T13:04:04;14.05;;;10.73;;
21501;SDS011;27639;48.674;9.242;2023-02-13T13:06:59;14.13;;;9.88;;
21501;SDS011;27639;48.674;9.242;2023-02-13T13:12:32;13.75;;;9.65;;
21501;SDS011;27639;48.674;9.242;2023-02-13T13:17:55;13.88;;;10.70;;
21501;SDS011;27639;48.674;9.242;2023-02-13T13:20:34;13.38;;;9.93;;
21501;SDS011;27639;48.674;9.242;2023-02-13T13:23:24;12.85;;;9.60;;
21501;SDS011;27639;48.674;9.242;2023-02-13T13:25:56;14.77;;;10.55;;
21501;SDS011;27639;48.674;9.242;2023-02-13T13:28:38;15.02;;;10.48;;
21501;SDS011;27639;48.674;9.242;2023-02-13T13:31:06;13.18;;;9.88;;
21501;SDS011;27639;48.674;9.242;2023-02-13T13:33:32;14.52;;;10.68;;
21501;SDS011;27639;48.674;9.242;2023-02-13T13:36:26;14.68;;;10.20;;
21501;SDS011;27639;48.674;9.242;2023-02-13T13:46:46;16.52;;;11.63;;
21501;SDS011;27639;48.674;9.242;2023-02-13T13:54:35;12.73;;;9.35;;
21501;SDS011;27639;48.674;9.242;2023-02-13T14:07:46;12.02;;;8.88;;
21501;SDS011;27639;48.674;9.242;2023-02-13T14:17:58;13.05;;;9.15;;
21501;SDS011;27639;48.674;9.242;2023-02-13T14:26:08;12.65;;;9.55;;
21501;SDS011;27639;48.674;9.242;2023-02-13T14:28:34;13.60;;;9.30;;
21501;SDS011;27639;48.674;9.242;2023-02-13T14:31:07;14.60;;;9.57;;
21501;SDS011;27639;48.674;9.242;2023-02-13T14:36:38;12.82;;;9.65;;
21501;SDS011;27639;48.674;9.242;2023-02-13T14:39:07;13.45;;;9.18;;
21501;SDS011;27639;48.674;9.242;2023-02-13T14:46:43;13.98;;;9.32;;
21501;SDS011;27639;48.674;9.242;2023-02-13T14:49:13;12.85;;;9.20;;
21501;SDS011;27639;48.674;9.242;2023-02-13T14:51:50;13.55;;;8.90;;
21501;SDS011;27639;48.674;9.242;2023-02-13T14:54:29;14.68;;;9.23;;
21501;SDS011;27639;48.674;9.242;2023-02-13T14:57:06;12.30;;;9.32;;
21501;SDS011;27639;48.674;9.242;2023-02-13T14:59:42;11.95;;;8.00;;
21501;SDS011;27639;48.674;9.242;2023-02-13T15:07:39;12.40;;;8.95;;
21501;SDS011;27639;48.674;9.242;2023-02-13T15:12:59;11.98;;;8.82;;
21501;SDS011;27639;48.674;9.242;2023-02-13T15:15:30;16.45;;;9.85;;
21501;SDS011;27639;48.674;9.242;2023-02-13T15:17:59;12.95;;;9.80;;
21501;SDS011;27639;48.674;9.242;2023-02-13T15:20:33;11.57;;;8.45;;
21501;SDS011;27639;48.674;9.242;2023-02-13T15:23:00;12.10;;;8.93;;
21501;SDS011;27639;48.674;9.242;2023-02-13T15:25:33;11.18;;;8.43;;
21501;SDS011;27639;48.674;9.242;2023-02-13T15:28:02;12.43;;;8.23;;
21501;SDS011;27639;48.674;9.242;2023-02-13T15:30:30;12.68;;;8.50;;
21501;SDS011;27639;48.674;9.242;2023-02-13T15:40:24;13.38;;;8.52;;
21501;SDS011;27639;48.674;9.242;2023-02-13T15:42:54;13.57;;;9.32;;
21501;SDS011;27639;48.674;9.242;2023-02-13T15:45:21;12.88;;;9.02;;
21501;SDS011;27639;48.674;9.242;2023-02-13T15:47:49;12.50;;;9.00;;
21501;SDS011;27639;48.674;9.242;2023-02-13T15:50:16;14.10;;;9.07;;
21501;SDS011;27639;48.674;9.242;2023-02-13T15:53:03;12.15;;;8.55;;
21501;SDS011;27639;48.674;9.242;2023-02-13T15:55:34;12.95;;;9.07;;
21501;SDS011;27639;48.674;9.242;2023-02-13T15:58:01;13.93;;;9.48;;
21501;SDS011;27639;48.674;9.242;2023-02-13T16:00:31;14.55;;;9.43;;
21501;SDS011;27639;48.674;9.242;2023-02-13T16:03:01;12.43;;;9.07;;
21501;SDS011;27639;48.674;9.242;2023-02-13T16:05:31;12.52;;;8.70;;
21501;SDS011;27639;48.674;9.242;2023-02-13T16:08:02;15.77;;;9.52;;
21501;SDS011;27639;48.674;9.242;2023-02-13T16:10:29;14.02;;;9.73;;
21501;SDS011;27639;48.674;9.242;2023-02-13T16:12:57;12.77;;;8.93;;
21501;SDS011;27639;48.674;9.242;2023-02-13T16:15:26;16.13;;;9.30;;
21501;SDS011;27639;48.674;9.242;2023-02-13T16:17:54;14.30;;;9.48;;
21501;SDS011;27639;48.674;9.242;2023-02-13T16:20:24;12.75;;;9.13;;
21501;SDS011;27639;48.674;9.242;2023-02-13T16:22:52;14.52;;;10.13;;
21501;SDS011;27639;48.674;9.242;2023-02-13T16:25:21;14.00;;;9.05;;
21501;SDS011;27639;48.674;9.242;2023-02-13T16:28:03;14.65;;;10.05;;
21501;SDS011;27639;48.674;9.242;2023-02-13T16:30:39;15.25;;;10.07;;
21501;SDS011;27639;48.674;9.242;2023-02-13T16:33:31;15.03;;;9.40;;
21501;SDS011;27639;48.674;9.242;2023-02-13T16:41:04;15.57;;;9.75;;
21501;SDS011;27639;48.674;9.242;2023-02-13T16:48:42;14.60;;;9.45;;
21501;SDS011;27639;48.674;9.242;2023-02-13T16:54:02;16.52;;;10.00;;
21501;SDS011;27639;48.674;9.242;2023-02-13T16:56:38;14.45;;;9.63;;
21501;SDS011;27639;48.674;9.242;2023-02-13T17:01:44;18.92;;;10.80;;
21501;SDS011;27639;48.674;9.242;2023-02-13T17:04:23;17.63;;;10.88;;
21501;SDS011;27639;48.674;9.242;2023-02-13T17:06:53;16.58;;;10.73;;
21501;SDS011;27639;48.674;9.242;2023-02-13T17:09:19;17.83;;;10.60;;
21501;SDS011;27639;48.674;9.242;2023-02-13T17:11:48;15.75;;;10.07;;
21501;SDS011;27639;48.674;9.242;2023-02-13T17:14:15;15.98;;;10.18;;
21501;SDS011;27639;48.674;9.242;2023-02-13T17:16:41;17.35;;;10.90;;
21501;SDS011;27639;48.674;9.242;2023-02-13T17:19:06;17.08;;;11.05;;
21501;SDS011;27639;48.674;9.242;2023-02-13T17:21:32;19.55;;;11.10;;
21501;SDS011;27639;48.674;9.242;2023-02-13T17:23:58;20.20;;;11.82;;
21501;SDS011;27639;48.674;9.242;2023-02-13T17:26:24;16.65;;;12.07;;
21501;SDS011;27639;48.674;9.242;2023-02-13T17:28:50;20.05;;;11.52;;
21501;SDS011;27639;48.674;9.242;2023-02-13T17:31:16;20.98;;;11.52;;
21501;SDS011;27639;48.674;9.242;2023-02-13T17:33:41;19.05;;;11.35;;
21501;SDS011;27639;48.674;9.242;2023-02-13T17:36:10;16.90;;;11.23;;
21501;SDS011;27639;48.674;9.242;2023-02-13T17:38:36;17.40;;;12.18;;
21501;SDS011;27639;48.674;9.242;2023-02-13T17:41:02;19.80;;;10.65;;
21501;SDS011;27639;48.674;9.242;2023-02-13T17:43:28;21.10;;;11.50;;
21501;SDS011;27639;48.674;9.242;2023-02-13T17:45:54;16.92;;;10.98;;
21501;SDS011;27639;48.674;9.242;2023-02-13T17:48:19;18.60;;;12.13;;
21501;SDS011;27639;48.674;9.242;2023-02-13T17:50:45;17.65;;;11.57;;
21501;SDS011;27639;48.674;9.242;2023-02-13T17:53:15;18.85;;;11.63;;
21501;SDS011;27639;48.674;9.242;2023-02-13T17:55:46;17.80;;;10.50;;
21501;SDS011;27639;48.674;9.242;2023-02-13T17:58:12;21.42;;;12.25;;
21501;SDS011;27639;48.674;9.242;2023-02-13T18:00:37;18.45;;;11.80;;
21501;SDS011;27639;48.674;9.242;2023-02-13T18:03:03;16.00;;;11.00;;
21501;SDS011;27639;48.674;9.242;2023-02-13T18:05:29;17.20;;;11.32;;
21501;SDS011;27639;48.674;9.242;2023-02-13T18:07:56;18.75;;;11.45;;
21501;SDS011;27639;48.674;9.242;2023-02-13T18:10:24;17.60;;;11.45;;